sensor_id;sensor_type;location;lat;lon;timestamp;P1;durP1;ratioP1;P2;durP2;ratioP2
6955;SDS011;50345;51.136;16.886;2023-03-11T00:00:18;3.50;;;2.27;;
6955;SDS011;50345;51.136;16.886;2023-03-11T00:02:46;2.08;;;1.88;;
6955;SDS011;50345;51.136;16.886;2023-03-11T00:05:21;3.22;;;1.77;;
6955;SDS011;50345;51.136;16.886;2023-03-11T00:07:55;3.60;;;2.45;;
6955;SDS011;50345;51.136;16.886;2023-03-11T00:10:23;1.80;;;1.65;;
6955;SDS011;50345;51.136;16.886;2023-03-11T00:12:50;2.90;;;2.72;;
6955;SDS011;50345;51.136;16.886;2023-03-11T00:15:16;4.00;;;3.70;;
6955;SDS011;50345;51.136;16.886;2023-03-11T00:17:42;4.53;;;4.13;;
6955;SDS011;50345;51.136;16.886;2023-03-11T00:20:10;6.20;;;5.70;;
6955;SDS011;50345;51.136;16.886;2023-03-11T00:22:44;7.05;;;6.45;;
6955;SDS011;50345;51.136;16.886;2023-03-11T00:25:10;13.80;;;11.23;;
6955;SDS011;50345;51.136;16.886;2023-03-11T00:27:36;18.10;;;16.50;;
6955;SDS011;50345;51.136;16.886;2023-03-11T00:30:02;14.50;;;13.20;;
6955;SDS011;50345;51.136;16.886;2023-03-11T00:32:28;11.10;;;10.20;;
6955;SDS011;50345;51.136;16.886;2023-03-11T00:34:54;4.33;;;3.90;;
6955;SDS011;50345;51.136;16.886;2023-03-11T00:37:19;3.47;;;2.70;;
6955;SDS011;50345;51.136;16.886;2023-03-11T00:39:45;1.90;;;1.80;;
6955;SDS011;50345;51.136;16.886;2023-03-11T00:42:10;2.03;;;1.83;;
6955;SDS011;50345;51.136;16.886;2023-03-11T00:44:36;1.87;;;1.50;;
6955;SDS011;50345;51.136;16.886;2023-03-11T00:47:02;2.80;;;2.40;;
6955;SDS011;50345;51.136;16.886;2023-03-11T00:49:27;2.63;;;2.43;;
6955;SDS011;50345;51.136;16.886;2023-03-11T00:51:53;3.17;;;2.97;;
6955;SDS011;50345;51.136;16.886;2023-03-11T00:54:18;4.90;;;4.40;;
6955;SDS011;50345;51.136;16.886;2023-03-11T00:56:44;4.60;;;4.30;;
6955;SDS011;50345;51.136;16.886;2023-03-11T00:59:10;5.00;;;2.37;;
6955;SDS011;50345;51.136;16.886;2023-03-11T01:01:35;2.20;;;1.20;;
6955;SDS011;50345;51.136;16.886;2023-03-11T01:04:01;1.53;;;1.20;;
6955;SDS011;50345;51.136;16.886;2023-03-11T01:06:26;1.63;;;1.53;;
6955;SDS011;50345;51.136;16.886;2023-03-11T01:08:52;4.03;;;1.60;;
6955;SDS011;50345;51.136;16.886;2023-03-11T01:11:17;1.30;;;1.20;;
6955;SDS011;50345;51.136;16.886;2023-03-11T01:13:43;1.60;;;1.50;;
6955;SDS011;50345;51.136;16.886;2023-03-11T01:16:08;1.53;;;1.00;;
6955;SDS011;50345;51.136;16.886;2023-03-11T01:18:34;1.37;;;1.03;;
6955;SDS011;50345;51.136;16.886;2023-03-11T01:20:59;0.90;;;0.90;;
6955;SDS011;50345;51.136;16.886;2023-03-11T01:23:25;1.20;;;1.10;;
6955;SDS011;50345;51.136;16.886;2023-03-11T01:25:51;1.03;;;0.83;;
6955;SDS011;50345;51.136;16.886;2023-03-11T01:28:16;1.30;;;1.20;;
6955;SDS011;50345;51.136;16.886;2023-03-11T01:30:42;0.80;;;0.80;;
6955;SDS011;50345;51.136;16.886;2023-03-11T01:33:10;3.20;;;2.90;;
6955;SDS011;50345;51.136;16.886;2023-03-11T01:35:39;1.70;;;1.17;;
6955;SDS011;50345;51.136;16.886;2023-03-11T01:38:06;0.80;;;0.80;;
6955;SDS011;50345;51.136;16.886;2023-03-11T01:40:34;0.98;;;0.80;;
6955;SDS011;50345;51.136;16.886;2023-03-11T01:46:11;1.00;;;0.93;;
6955;SDS011;50345;51.136;16.886;2023-03-11T01:48:47;1.10;;;1.00;;
6955;SDS011;50345;51.136;16.886;2023-03-11T01:51:39;1.80;;;0.90;;
6955;SDS011;50345;51.136;16.886;2023-03-11T01:54:09;0.75;;;0.75;;
6955;SDS011;50345;51.136;16.886;2023-03-11T01:56:40;0.80;;;0.80;;
6955;SDS011;50345;51.136;16.886;2023-03-11T01:59:07;1.02;;;0.98;;
6955;SDS011;50345;51.136;16.886;2023-03-11T02:01:36;1.10;;;1.00;;
6955;SDS011;50345;51.136;16.886;2023-03-11T02:04:07;1.17;;;0.98;;
6955;SDS011;50345;51.136;16.886;2023-03-11T02:06:33;1.08;;;0.80;;
6955;SDS011;50345;51.136;16.886;2023-03-11T02:08:59;1.38;;;0.80;;
6955;SDS011;50345;51.136;16.886;2023-03-11T02:11:26;0.90;;;0.80;;
6955;SDS011;50345;51.136;16.886;2023-03-11T02:13:55;1.23;;;0.73;;
6955;SDS011;50345;51.136;16.886;2023-03-11T02:16:24;0.63;;;0.63;;
6955;SDS011;50345;51.136;16.886;2023-03-11T02:18:49;2.00;;;0.93;;
6955;SDS011;50345;51.136;16.886;2023-03-11T02:21:23;0.60;;;0.60;;
6955;SDS011;50345;51.136;16.886;2023-03-11T02:28:57;0.98;;;0.80;;
6955;SDS011;50345;51.136;16.886;2023-03-11T02:31:24;1.27;;;1.15;;
6955;SDS011;50345;51.136;16.886;2023-03-11T02:33:50;1.55;;;0.95;;
6955;SDS011;50345;51.136;16.886;2023-03-11T02:36:40;0.98;;;0.80;;
6955;SDS011;50345;51.136;16.886;2023-03-11T02:39:05;0.70;;;0.70;;
6955;SDS011;50345;51.136;16.886;2023-03-11T02:41:32;0.80;;;0.68;;
6955;SDS011;50345;51.136;16.886;2023-03-11T02:44:02;1.42;;;1.25;;
6955;SDS011;50345;51.136;16.886;2023-03-11T02:46:28;1.20;;;1.10;;
6955;SDS011;50345;51.136;16.886;2023-03-11T02:48:55;2.10;;;2.00;;
6955;SDS011;50345;51.136;16.886;2023-03-11T02:51:21;1.65;;;1.55;;
6955;SDS011;50345;51.136;16.886;2023-03-11T02:53:48;0.90;;;0.90;;
6955;SDS011;50345;51.136;16.886;2023-03-11T02:56:16;3.90;;;3.58;;
6955;SDS011;50345;51.136;16.886;2023-03-11T02:58:42;1.50;;;1.40;;
6955;SDS011;50345;51.136;16.886;2023-03-11T03:01:08;0.80;;;0.80;;
6955;SDS011;50345;51.136;16.886;2023-03-11T03:03:34;1.00;;;0.93;;
6955;SDS011;50345;51.136;16.886;2023-03-11T03:06:00;1.10;;;1.00;;
6955;SDS011;50345;51.136;16.886;2023-03-11T03:08:26;0.90;;;0.90;;
6955;SDS011;50345;51.136;16.886;2023-03-11T03:10:52;1.00;;;0.70;;
6955;SDS011;50345;51.136;16.886;2023-03-11T03:13:17;1.20;;;1.10;;
6955;SDS011;50345;51.136;16.886;2023-03-11T03:15:43;0.73;;;0.70;;
6955;SDS011;50345;51.136;16.886;2023-03-11T03:18:08;0.60;;;0.60;;
6955;SDS011;50345;51.136;16.886;2023-03-11T03:20:34;0.70;;;0.70;;
6955;SDS011;50345;51.136;16.886;2023-03-11T03:23:00;0.80;;;0.80;;
6955;SDS011;50345;51.136;16.886;2023-03-11T03:25:25;1.00;;;0.63;;
6955;SDS011;50345;51.136;16.886;2023-03-11T03:27:51;2.30;;;0.80;;
6955;SDS011;50345;51.136;16.886;2023-03-11T03:30:17;0.60;;;0.60;;
6955;SDS011;50345;51.136;16.886;2023-03-11T03:32:42;0.60;;;0.60;;
6955;SDS011;50345;51.136;16.886;2023-03-11T03:35:08;0.80;;;0.80;;
6955;SDS011;50345;51.136;16.886;2023-03-11T03:37:34;0.70;;;0.70;;
6955;SDS011;50345;51.136;16.886;2023-03-11T03:40:04;1.60;;;0.73;;
6955;SDS011;50345;51.136;16.886;2023-03-11T03:42:34;0.63;;;0.60;;
6955;SDS011;50345;51.136;16.886;2023-03-11T03:45:01;0.75;;;0.75;;
6955;SDS011;50345;51.136;16.886;2023-03-11T03:47:28;0.70;;;0.70;;
6955;SDS011;50345;51.136;16.886;2023-03-11T03:49:54;0.83;;;0.60;;
6955;SDS011;50345;51.136;16.886;2023-03-11T03:52:19;0.70;;;0.70;;
6955;SDS011;50345;51.136;16.886;2023-03-11T03:54:45;0.63;;;0.60;;
6955;SDS011;50345;51.136;16.886;2023-03-11T03:57:10;1.33;;;0.70;;
6955;SDS011;50345;51.136;16.886;2023-03-11T03:59:36;0.50;;;0.50;;
6955;SDS011;50345;51.136;16.886;2023-03-11T04:02:02;0.70;;;0.60;;
6955;SDS011;50345;51.136;16.886;2023-03-11T04:04:27;0.70;;;0.70;;
6955;SDS011;50345;51.136;16.886;2023-03-11T04:06:53;0.77;;;0.77;;
6955;SDS011;50345;51.136;16.886;2023-03-11T04:09:19;0.70;;;0.70;;
6955;SDS011;50345;51.136;16.886;2023-03-11T04:11:45;0.70;;;0.70;;
6955;SDS011;50345;51.136;16.886;2023-03-11T04:14:10;1.70;;;1.60;;
6955;SDS011;50345;51.136;16.886;2023-03-11T04:16:36;1.80;;;1.70;;
6955;SDS011;50345;51.136;16.886;2023-03-11T04:19:01;0.70;;;0.70;;
6955;SDS011;50345;51.136;16.886;2023-03-11T04:21:28;0.60;;;0.60;;
6955;SDS011;50345;51.136;16.886;2023-03-11T04:23:54;1.40;;;1.30;;
6955;SDS011;50345;51.136;16.886;2023-03-11T04:26:20;0.70;;;0.70;;
6955;SDS011;50345;51.136;16.886;2023-03-11T04:28:46;1.17;;;1.07;;
6955;SDS011;50345;51.136;16.886;2023-03-11T04:31:11;0.80;;;0.80;;
6955;SDS011;50345;51.136;16.886;2023-03-11T04:33:37;0.80;;;0.80;;
6955;SDS011;50345;51.136;16.886;2023-03-11T04:36:06;0.70;;;0.70;;
6955;SDS011;50345;51.136;16.886;2023-03-11T04:38:33;0.95;;;0.90;;
6955;SDS011;50345;51.136;16.886;2023-03-11T04:40:59;1.40;;;1.30;;
6955;SDS011;50345;51.136;16.886;2023-03-11T04:43:28;4.25;;;4.05;;
6955;SDS011;50345;51.136;16.886;2023-03-11T04:45:54;1.10;;;1.00;;
6955;SDS011;50345;51.136;16.886;2023-03-11T04:48:19;0.73;;;0.73;;
6955;SDS011;50345;51.136;16.886;2023-03-11T04:50:45;0.70;;;0.70;;
6955;SDS011;50345;51.136;16.886;2023-03-11T04:53:11;0.83;;;0.83;;
6955;SDS011;50345;51.136;16.886;2023-03-11T04:55:36;0.67;;;0.67;;
6955;SDS011;50345;51.136;16.886;2023-03-11T04:58:03;0.70;;;0.70;;
6955;SDS011;50345;51.136;16.886;2023-03-11T05:00:29;0.70;;;0.70;;
6955;SDS011;50345;51.136;16.886;2023-03-11T05:02:54;0.80;;;0.80;;
6955;SDS011;50345;51.136;16.886;2023-03-11T05:05:20;0.77;;;0.63;;
6955;SDS011;50345;51.136;16.886;2023-03-11T05:07:45;0.80;;;0.70;;
6955;SDS011;50345;51.136;16.886;2023-03-11T05:10:11;0.80;;;0.80;;
6955;SDS011;50345;51.136;16.886;2023-03-11T05:12:37;0.80;;;0.73;;
6955;SDS011;50345;51.136;16.886;2023-03-11T05:15:03;0.80;;;0.80;;
6955;SDS011;50345;51.136;16.886;2023-03-11T05:17:29;0.80;;;0.80;;
6955;SDS011;50345;51.136;16.886;2023-03-11T05:19:55;0.80;;;0.80;;
6955;SDS011;50345;51.136;16.886;2023-03-11T05:22:21;0.75;;;0.75;;
6955;SDS011;50345;51.136;16.886;2023-03-11T05:24:47;1.00;;;0.90;;
6955;SDS011;50345;51.136;16.886;2023-03-11T05:27:13;0.97;;;0.97;;
6955;SDS011;50345;51.136;16.886;2023-03-11T05:29:42;0.73;;;0.73;;
6955;SDS011;50345;51.136;16.886;2023-03-11T05:32:09;0.90;;;0.90;;
6955;SDS011;50345;51.136;16.886;2023-03-11T05:34:35;0.80;;;0.80;;
6955;SDS011;50345;51.136;16.886;2023-03-11T05:37:01;2.05;;;1.95;;
6955;SDS011;50345;51.136;16.886;2023-03-11T05:39:27;0.80;;;0.80;;
6955;SDS011;50345;51.136;16.886;2023-03-11T05:41:53;1.40;;;1.30;;
6955;SDS011;50345;51.136;16.886;2023-03-11T05:44:20;1.35;;;1.25;;
6955;SDS011;50345;51.136;16.886;2023-03-11T05:46:46;1.30;;;1.20;;
6955;SDS011;50345;51.136;16.886;2023-03-11T05:49:12;1.17;;;1.07;;
6955;SDS011;50345;51.136;16.886;2023-03-11T05:51:37;1.57;;;1.47;;
6955;SDS011;50345;51.136;16.886;2023-03-11T05:54:04;1.45;;;1.20;;
6955;SDS011;50345;51.136;16.886;2023-03-11T05:56:35;1.52;;;1.42;;
6955;SDS011;50345;51.136;16.886;2023-03-11T05:59:01;1.30;;;1.20;;
6955;SDS011;50345;51.136;16.886;2023-03-11T06:01:26;1.60;;;1.50;;
6955;SDS011;50345;51.136;16.886;2023-03-11T06:03:52;1.60;;;1.50;;
6955;SDS011;50345;51.136;16.886;2023-03-11T06:06:17;1.60;;;1.50;;
6955;SDS011;50345;51.136;16.886;2023-03-11T06:08:44;1.80;;;1.70;;
6955;SDS011;50345;51.136;16.886;2023-03-11T06:11:14;1.65;;;1.55;;
6955;SDS011;50345;51.136;16.886;2023-03-11T06:13:40;1.58;;;1.48;;
6955;SDS011;50345;51.136;16.886;2023-03-11T06:16:06;2.07;;;1.97;;
6955;SDS011;50345;51.136;16.886;2023-03-11T06:18:32;1.85;;;1.75;;
6955;SDS011;50345;51.136;16.886;2023-03-11T06:20:58;1.73;;;1.63;;
6955;SDS011;50345;51.136;16.886;2023-03-11T06:23:25;1.90;;;1.80;;
6955;SDS011;50345;51.136;16.886;2023-03-11T06:25:57;2.00;;;1.90;;
6955;SDS011;50345;51.136;16.886;2023-03-11T06:28:25;2.10;;;2.00;;
6955;SDS011;50345;51.136;16.886;2023-03-11T06:30:51;2.40;;;2.30;;
6955;SDS011;50345;51.136;16.886;2023-03-11T06:33:17;3.03;;;1.43;;
6955;SDS011;50345;51.136;16.886;2023-03-11T06:35:42;1.87;;;1.77;;
6955;SDS011;50345;51.136;16.886;2023-03-11T06:38:08;2.20;;;2.10;;
6955;SDS011;50345;51.136;16.886;2023-03-11T06:40:35;2.07;;;1.97;;
6955;SDS011;50345;51.136;16.886;2023-03-11T06:43:01;2.22;;;2.13;;
6955;SDS011;50345;51.136;16.886;2023-03-11T06:45:27;2.90;;;2.00;;
6955;SDS011;50345;51.136;16.886;2023-03-11T06:47:52;1.73;;;1.63;;
6955;SDS011;50345;51.136;16.886;2023-03-11T06:50:18;2.23;;;1.97;;
6955;SDS011;50345;51.136;16.886;2023-03-11T06:52:43;2.17;;;2.07;;
6955;SDS011;50345;51.136;16.886;2023-03-11T06:55:09;2.40;;;1.93;;
6955;SDS011;50345;51.136;16.886;2023-03-11T06:57:35;2.20;;;2.00;;
6955;SDS011;50345;51.136;16.886;2023-03-11T07:00:01;2.40;;;2.30;;
6955;SDS011;50345;51.136;16.886;2023-03-11T07:02:31;2.10;;;1.90;;
6955;SDS011;50345;51.136;16.886;2023-03-11T07:04:56;2.33;;;2.10;;
6955;SDS011;50345;51.136;16.886;2023-03-11T07:07:22;2.30;;;2.20;;
6955;SDS011;50345;51.136;16.886;2023-03-11T07:09:48;3.10;;;2.53;;
6955;SDS011;50345;51.136;16.886;2023-03-11T07:12:13;2.17;;;2.07;;
6955;SDS011;50345;51.136;16.886;2023-03-11T07:14:39;3.60;;;2.07;;
6955;SDS011;50345;51.136;16.886;2023-03-11T07:17:04;2.47;;;2.27;;
6955;SDS011;50345;51.136;16.886;2023-03-11T07:19:30;2.07;;;1.87;;
6955;SDS011;50345;51.136;16.886;2023-03-11T07:21:56;1.60;;;1.50;;
6955;SDS011;50345;51.136;16.886;2023-03-11T07:24:21;1.90;;;1.80;;
6955;SDS011;50345;51.136;16.886;2023-03-11T07:26:47;2.37;;;2.17;;
6955;SDS011;50345;51.136;16.886;2023-03-11T07:29:12;3.00;;;2.70;;
6955;SDS011;50345;51.136;16.886;2023-03-11T07:31:38;2.17;;;1.97;;
6955;SDS011;50345;51.136;16.886;2023-03-11T07:34:05;2.25;;;2.05;;
6955;SDS011;50345;51.136;16.886;2023-03-11T07:36:35;3.28;;;2.80;;
6955;SDS011;50345;51.136;16.886;2023-03-11T07:39:02;2.50;;;2.30;;
6955;SDS011;50345;51.136;16.886;2023-03-11T07:41:29;3.10;;;2.80;;
6955;SDS011;50345;51.136;16.886;2023-03-11T07:43:57;2.30;;;2.10;;
6955;SDS011;50345;51.136;16.886;2023-03-11T07:46:24;2.70;;;2.50;;
6955;SDS011;50345;51.136;16.886;2023-03-11T07:48:51;2.65;;;2.45;;
6955;SDS011;50345;51.136;16.886;2023-03-11T07:51:21;2.85;;;2.65;;
6955;SDS011;50345;51.136;16.886;2023-03-11T07:53:48;3.35;;;2.60;;
6955;SDS011;50345;51.136;16.886;2023-03-11T07:56:16;2.92;;;2.63;;
6955;SDS011;50345;51.136;16.886;2023-03-11T07:58:42;3.10;;;2.80;;
6955;SDS011;50345;51.136;16.886;2023-03-11T08:01:09;2.75;;;2.55;;
6955;SDS011;50345;51.136;16.886;2023-03-11T08:03:37;2.85;;;2.65;;
6955;SDS011;50345;51.136;16.886;2023-03-11T08:06:10;2.75;;;2.55;;
6955;SDS011;50345;51.136;16.886;2023-03-11T08:08:39;2.55;;;2.45;;
6955;SDS011;50345;51.136;16.886;2023-03-11T08:11:05;2.78;;;2.58;;
6955;SDS011;50345;51.136;16.886;2023-03-11T08:13:31;2.50;;;2.30;;
6955;SDS011;50345;51.136;16.886;2023-03-11T08:15:57;2.60;;;2.50;;
6955;SDS011;50345;51.136;16.886;2023-03-11T08:18:23;2.60;;;2.40;;
6955;SDS011;50345;51.136;16.886;2023-03-11T08:20:49;3.67;;;2.40;;
6955;SDS011;50345;51.136;16.886;2023-03-11T08:23:14;3.13;;;2.83;;
6955;SDS011;50345;51.136;16.886;2023-03-11T08:25:40;2.90;;;2.70;;
6955;SDS011;50345;51.136;16.886;2023-03-11T08:28:06;3.57;;;2.80;;
6955;SDS011;50345;51.136;16.886;2023-03-11T08:30:33;2.85;;;2.60;;
6955;SDS011;50345;51.136;16.886;2023-03-11T08:32:59;2.15;;;1.95;;
6955;SDS011;50345;51.136;16.886;2023-03-11T08:35:24;3.03;;;2.77;;
6955;SDS011;50345;51.136;16.886;2023-03-11T08:37:51;2.30;;;2.10;;
6955;SDS011;50345;51.136;16.886;2023-03-11T08:40:17;2.63;;;2.42;;
6955;SDS011;50345;51.136;16.886;2023-03-11T08:42:43;2.15;;;2.00;;
6955;SDS011;50345;51.136;16.886;2023-03-11T08:45:08;2.80;;;2.60;;
6955;SDS011;50345;51.136;16.886;2023-03-11T08:47:35;3.00;;;2.70;;
6955;SDS011;50345;51.136;16.886;2023-03-11T08:50:02;2.30;;;2.15;;
6955;SDS011;50345;51.136;16.886;2023-03-11T08:52:30;2.85;;;2.47;;
6955;SDS011;50345;51.136;16.886;2023-03-11T08:54:55;2.50;;;2.20;;
6955;SDS011;50345;51.136;16.886;2023-03-11T08:57:21;2.80;;;2.50;;
6955;SDS011;50345;51.136;16.886;2023-03-11T08:59:46;2.33;;;2.03;;
6955;SDS011;50345;51.136;16.886;2023-03-11T09:02:12;2.10;;;1.90;;
6955;SDS011;50345;51.136;16.886;2023-03-11T09:04:37;2.33;;;2.13;;
6955;SDS011;50345;51.136;16.886;2023-03-11T09:07:03;1.93;;;1.83;;
6955;SDS011;50345;51.136;16.886;2023-03-11T09:09:28;2.03;;;1.83;;
6955;SDS011;50345;51.136;16.886;2023-03-11T09:11:54;1.70;;;1.60;;
6955;SDS011;50345;51.136;16.886;2023-03-11T09:14:19;2.00;;;1.90;;
6955;SDS011;50345;51.136;16.886;2023-03-11T09:16:45;1.60;;;1.50;;
6955;SDS011;50345;51.136;16.886;2023-03-11T09:19:11;2.60;;;2.40;;
6955;SDS011;50345;51.136;16.886;2023-03-11T09:21:36;2.37;;;1.50;;
6955;SDS011;50345;51.136;16.886;2023-03-11T09:24:02;1.60;;;1.50;;
6955;SDS011;50345;51.136;16.886;2023-03-11T09:26:29;3.58;;;2.00;;
6955;SDS011;50345;51.136;16.886;2023-03-11T09:28:55;3.03;;;2.78;;
6955;SDS011;50345;51.136;16.886;2023-03-11T09:31:21;2.87;;;2.67;;
6955;SDS011;50345;51.136;16.886;2023-03-11T09:33:47;5.50;;;2.67;;
6955;SDS011;50345;51.136;16.886;2023-03-11T09:36:14;3.58;;;3.25;;
6955;SDS011;50345;51.136;16.886;2023-03-11T09:38:42;2.38;;;2.17;;
6955;SDS011;50345;51.136;16.886;2023-03-11T09:41:25;3.10;;;2.88;;
6955;SDS011;50345;51.136;16.886;2023-03-11T09:46:57;2.58;;;2.38;;
6955;SDS011;50345;51.136;16.886;2023-03-11T09:52:15;2.45;;;2.25;;
6955;SDS011;50345;51.136;16.886;2023-03-11T09:54:50;3.20;;;2.90;;
6955;SDS011;50345;51.136;16.886;2023-03-11T09:57:21;4.72;;;2.92;;
6955;SDS011;50345;51.136;16.886;2023-03-11T09:59:52;2.35;;;2.15;;
6955;SDS011;50345;51.136;16.886;2023-03-11T10:02:20;4.00;;;2.85;;
6955;SDS011;50345;51.136;16.886;2023-03-11T10:04:52;2.63;;;2.42;;
6955;SDS011;50345;51.136;16.886;2023-03-11T10:07:40;3.00;;;2.80;;
6955;SDS011;50345;51.136;16.886;2023-03-11T10:10:11;3.85;;;2.90;;
6955;SDS011;50345;51.136;16.886;2023-03-11T10:12:51;3.00;;;2.75;;
6955;SDS011;50345;51.136;16.886;2023-03-11T10:21:08;2.75;;;2.47;;
6955;SDS011;50345;51.136;16.886;2023-03-11T10:26:41;3.17;;;2.53;;
6955;SDS011;50345;51.136;16.886;2023-03-11T10:29:13;2.30;;;2.08;;
6955;SDS011;50345;51.136;16.886;2023-03-11T10:37:28;3.60;;;2.55;;
6955;SDS011;50345;51.136;16.886;2023-03-11T10:42:50;2.65;;;2.45;;
6955;SDS011;50345;51.136;16.886;2023-03-11T10:45:19;6.43;;;4.93;;
6955;SDS011;50345;51.136;16.886;2023-03-11T10:47:47;6.57;;;5.10;;
6955;SDS011;50345;51.136;16.886;2023-03-11T10:50:14;17.30;;;15.55;;
6955;SDS011;50345;51.136;16.886;2023-03-11T10:53:03;24.80;;;22.08;;
6955;SDS011;50345;51.136;16.886;2023-03-11T10:55:33;6.22;;;5.63;;
6955;SDS011;50345;51.136;16.886;2023-03-11T10:58:03;7.22;;;5.65;;
6955;SDS011;50345;51.136;16.886;2023-03-11T11:00:36;4.63;;;4.20;;
6955;SDS011;50345;51.136;16.886;2023-03-11T11:03:02;3.43;;;3.13;;
6955;SDS011;50345;51.136;16.886;2023-03-11T11:05:31;4.13;;;3.50;;
6955;SDS011;50345;51.136;16.886;2023-03-11T11:08:02;3.50;;;3.20;;
6955;SDS011;50345;51.136;16.886;2023-03-11T11:10:29;2.92;;;2.70;;
6955;SDS011;50345;51.136;16.886;2023-03-11T11:12:57;3.00;;;2.80;;
6955;SDS011;50345;51.136;16.886;2023-03-11T11:18:28;3.40;;;3.15;;
6955;SDS011;50345;51.136;16.886;2023-03-11T11:20:56;4.75;;;3.55;;
6955;SDS011;50345;51.136;16.886;2023-03-11T11:23:38;3.70;;;3.42;;
6955;SDS011;50345;51.136;16.886;2023-03-11T11:26:16;4.82;;;4.30;;
6955;SDS011;50345;51.136;16.886;2023-03-11T11:29:11;3.60;;;3.30;;
6955;SDS011;50345;51.136;16.886;2023-03-11T11:31:40;5.10;;;2.63;;
6955;SDS011;50345;51.136;16.886;2023-03-11T11:37:00;3.20;;;2.83;;
6955;SDS011;50345;51.136;16.886;2023-03-11T11:39:29;3.95;;;3.60;;
6955;SDS011;50345;51.136;16.886;2023-03-11T11:42:00;5.25;;;2.63;;
6955;SDS011;50345;51.136;16.886;2023-03-11T11:44:29;3.27;;;2.90;;
6955;SDS011;50345;51.136;16.886;2023-03-11T11:47:11;3.63;;;3.30;;
6955;SDS011;50345;51.136;16.886;2023-03-11T11:50:17;6.45;;;4.63;;
6955;SDS011;50345;51.136;16.886;2023-03-11T11:52:53;22.48;;;20.58;;
6955;SDS011;50345;51.136;16.886;2023-03-11T11:55:26;10.18;;;9.27;;
6955;SDS011;50345;51.136;16.886;2023-03-11T11:57:53;14.20;;;13.00;;
6955;SDS011;50345;51.136;16.886;2023-03-11T12:00:25;5.15;;;4.75;;
6955;SDS011;50345;51.136;16.886;2023-03-11T12:03:37;4.40;;;3.45;;
6955;SDS011;50345;51.136;16.886;2023-03-11T12:06:12;7.55;;;6.63;;
6955;SDS011;50345;51.136;16.886;2023-03-11T12:11:37;2.40;;;2.20;;
6955;SDS011;50345;51.136;16.886;2023-03-11T12:19:36;3.67;;;2.80;;
6955;SDS011;50345;51.136;16.886;2023-03-11T12:25:07;2.83;;;2.60;;
6955;SDS011;50345;51.136;16.886;2023-03-11T12:30:19;3.63;;;2.65;;
6955;SDS011;50345;51.136;16.886;2023-03-11T12:32:53;2.80;;;2.60;;
6955;SDS011;50345;51.136;16.886;2023-03-11T12:35:26;2.80;;;1.83;;
6955;SDS011;50345;51.136;16.886;2023-03-11T12:41:03;5.10;;;2.25;;
6955;SDS011;50345;51.136;16.886;2023-03-11T12:46:14;2.35;;;2.15;;
6955;SDS011;50345;51.136;16.886;2023-03-11T12:56:56;4.28;;;2.88;;
6955;SDS011;50345;51.136;16.886;2023-03-11T13:11:01;2.58;;;2.38;;
6955;SDS011;50345;51.136;16.886;2023-03-11T13:16:44;3.70;;;2.17;;
6955;SDS011;50345;51.136;16.886;2023-03-11T13:21:57;3.00;;;2.63;;
6955;SDS011;50345;51.136;16.886;2023-03-11T13:26:53;3.80;;;2.80;;
6955;SDS011;50345;51.136;16.886;2023-03-11T13:29:28;4.03;;;3.65;;
6955;SDS011;50345;51.136;16.886;2023-03-11T13:34:54;3.70;;;3.40;;
6955;SDS011;50345;51.136;16.886;2023-03-11T13:40:31;5.35;;;2.90;;
6955;SDS011;50345;51.136;16.886;2023-03-11T13:43:03;4.75;;;2.78;;
6955;SDS011;50345;51.136;16.886;2023-03-11T13:45:40;2.83;;;2.63;;
6955;SDS011;50345;51.136;16.886;2023-03-11T13:50:54;3.85;;;2.75;;
6955;SDS011;50345;51.136;16.886;2023-03-11T13:53:37;2.67;;;2.38;;
6955;SDS011;50345;51.136;16.886;2023-03-11T13:56:24;3.78;;;3.47;;
6955;SDS011;50345;51.136;16.886;2023-03-11T13:58:53;11.23;;;8.52;;
6955;SDS011;50345;51.136;16.886;2023-03-11T14:01:18;3.10;;;2.90;;
6955;SDS011;50345;51.136;16.886;2023-03-11T14:03:45;3.47;;;2.70;;
6955;SDS011;50345;51.136;16.886;2023-03-11T14:06:16;2.65;;;2.28;;
6955;SDS011;50345;51.136;16.886;2023-03-11T14:08:44;5.05;;;3.63;;
6955;SDS011;50345;51.136;16.886;2023-03-11T14:11:23;5.55;;;3.40;;
6955;SDS011;50345;51.136;16.886;2023-03-11T14:13:51;3.10;;;2.80;;
6955;SDS011;50345;51.136;16.886;2023-03-11T14:16:28;3.92;;;3.72;;
6955;SDS011;50345;51.136;16.886;2023-03-11T14:19:03;3.33;;;3.00;;
6955;SDS011;50345;51.136;16.886;2023-03-11T14:21:34;4.07;;;3.65;;
6955;SDS011;50345;51.136;16.886;2023-03-11T14:24:01;4.37;;;3.97;;
6955;SDS011;50345;51.136;16.886;2023-03-11T14:26:28;5.57;;;4.85;;
6955;SDS011;50345;51.136;16.886;2023-03-11T14:28:57;6.55;;;6.00;;
6955;SDS011;50345;51.136;16.886;2023-03-11T14:33:57;4.75;;;4.03;;
6955;SDS011;50345;51.136;16.886;2023-03-11T14:39:21;4.32;;;3.42;;
6955;SDS011;50345;51.136;16.886;2023-03-11T14:41:48;6.32;;;4.68;;
6955;SDS011;50345;51.136;16.886;2023-03-11T14:44:15;9.98;;;7.80;;
6955;SDS011;50345;51.136;16.886;2023-03-11T14:46:41;4.53;;;3.53;;
6955;SDS011;50345;51.136;16.886;2023-03-11T14:49:11;6.30;;;4.38;;
6955;SDS011;50345;51.136;16.886;2023-03-11T14:51:41;5.60;;;3.88;;
6955;SDS011;50345;51.136;16.886;2023-03-11T14:56:47;3.35;;;2.97;;
6955;SDS011;50345;51.136;16.886;2023-03-11T14:59:22;5.40;;;4.72;;
6955;SDS011;50345;51.136;16.886;2023-03-11T15:01:52;3.90;;;3.28;;
6955;SDS011;50345;51.136;16.886;2023-03-11T15:04:34;2.63;;;2.40;;
6955;SDS011;50345;51.136;16.886;2023-03-11T15:07:03;1.92;;;1.80;;
6955;SDS011;50345;51.136;16.886;2023-03-11T15:09:29;3.28;;;2.25;;
6955;SDS011;50345;51.136;16.886;2023-03-11T15:11:57;3.50;;;3.20;;
6955;SDS011;50345;51.136;16.886;2023-03-11T15:14:25;5.13;;;3.05;;
6955;SDS011;50345;51.136;16.886;2023-03-11T15:16:51;4.00;;;3.60;;
6955;SDS011;50345;51.136;16.886;2023-03-11T15:19:22;3.00;;;2.70;;
6955;SDS011;50345;51.136;16.886;2023-03-11T15:21:59;3.10;;;2.72;;
6955;SDS011;50345;51.136;16.886;2023-03-11T15:24:31;3.33;;;3.03;;
6955;SDS011;50345;51.136;16.886;2023-03-11T15:29:26;3.15;;;2.58;;
6955;SDS011;50345;51.136;16.886;2023-03-11T15:31:52;3.13;;;2.53;;
6955;SDS011;50345;51.136;16.886;2023-03-11T15:39:16;2.67;;;2.47;;
6955;SDS011;50345;51.136;16.886;2023-03-11T15:41:45;2.97;;;2.13;;
6955;SDS011;50345;51.136;16.886;2023-03-11T15:44:23;3.22;;;2.60;;
6955;SDS011;50345;51.136;16.886;2023-03-11T15:46:52;3.90;;;3.50;;
6955;SDS011;50345;51.136;16.886;2023-03-11T15:49:17;3.07;;;2.77;;
6955;SDS011;50345;51.136;16.886;2023-03-11T15:51:43;4.40;;;2.97;;
6955;SDS011;50345;51.136;16.886;2023-03-11T15:54:08;4.57;;;4.17;;
6955;SDS011;50345;51.136;16.886;2023-03-11T15:56:34;3.60;;;3.30;;
6955;SDS011;50345;51.136;16.886;2023-03-11T15:59:01;11.38;;;10.50;;
6955;SDS011;50345;51.136;16.886;2023-03-11T16:01:27;6.70;;;6.30;;
6955;SDS011;50345;51.136;16.886;2023-03-11T16:03:54;3.38;;;3.08;;
6955;SDS011;50345;51.136;16.886;2023-03-11T16:06:20;3.88;;;3.47;;
6955;SDS011;50345;51.136;16.886;2023-03-11T16:08:49;3.90;;;2.97;;
6955;SDS011;50345;51.136;16.886;2023-03-11T16:11:14;4.53;;;3.07;;
6955;SDS011;50345;51.136;16.886;2023-03-11T16:13:40;6.97;;;4.20;;
6955;SDS011;50345;51.136;16.886;2023-03-11T16:18:40;3.97;;;3.40;;
6955;SDS011;50345;51.136;16.886;2023-03-11T16:21:07;7.80;;;5.43;;
6955;SDS011;50345;51.136;16.886;2023-03-11T16:23:39;2.50;;;2.30;;
6955;SDS011;50345;51.136;16.886;2023-03-11T16:26:06;4.75;;;2.83;;
6955;SDS011;50345;51.136;16.886;2023-03-11T16:28:34;3.20;;;3.00;;
6955;SDS011;50345;51.136;16.886;2023-03-11T16:31:00;4.00;;;2.97;;
6955;SDS011;50345;51.136;16.886;2023-03-11T16:33:25;3.30;;;2.83;;
6955;SDS011;50345;51.136;16.886;2023-03-11T16:35:51;3.53;;;3.17;;
6955;SDS011;50345;51.136;16.886;2023-03-11T16:38:17;3.23;;;2.93;;
6955;SDS011;50345;51.136;16.886;2023-03-11T16:40:43;2.38;;;2.17;;
6955;SDS011;50345;51.136;16.886;2023-03-11T16:43:09;3.00;;;2.80;;
6955;SDS011;50345;51.136;16.886;2023-03-11T16:45:37;4.05;;;2.80;;